Aberdeen, Kentucky
Current Conditions -  °F | °C
As of 2:13 AM on Thursday 27 Nov 2014 (Local Time) from KBWG Reporting Station
Unknown Precip Unknown Precip  
Wind Chill: 30°   Ceiling: 900
Heat Index: 36°   Visibility: 9mi
Dew Point: 33°   Wind: 8mph
Humidity: 89%   Direction: 300°WNW
Pressure: 30.12"   Gusts: NA
Location:  37.25°N, 86.68°W
Report Text: KBWG 270813Z AUTO 30007KT 9SM UP OVC009 02/01 A3012 RMK AO2 UPB0759 CIG 007V011 P0000 T00220006
Loading
Personal Weather Stations






























Interactive Weather Map New forecast layout! Learn more

10-Day Weather Forecast

Advertisements
Track Severe Weather on mobile